createdAt,value
2018-11-26T00:00:14.668Z,1.10
2018-11-26T00:02:43.032Z,1.10
2018-11-26T00:05:11.352Z,1.10
2018-11-26T00:07:39.641Z,1.10
2018-11-26T00:10:19.271Z,1.10
2018-11-26T00:12:47.568Z,1.10
2018-11-26T00:15:16.122Z,1.20
2018-11-26T00:17:44.404Z,1.20
2018-11-26T00:20:12.836Z,1.20
2018-11-26T00:22:41.129Z,1.20
2018-11-26T00:25:09.440Z,1.30
2018-11-26T00:27:37.820Z,1.30
2018-11-26T00:30:07.588Z,1.30
2018-11-26T00:32:35.964Z,1.40
2018-11-26T00:35:04.324Z,1.40
2018-11-26T00:37:32.600Z,1.50
2018-11-26T00:40:00.901Z,1.50
2018-11-26T00:42:29.176Z,1.50
2018-11-26T00:44:57.471Z,1.60
2018-11-26T00:47:25.796Z,1.60
2018-11-26T00:49:54.128Z,1.70
2018-11-26T00:52:22.387Z,1.70
2018-11-26T00:54:50.706Z,1.70
2018-11-26T00:57:19.043Z,1.80
2018-11-26T00:59:47.400Z,1.70
2018-11-26T01:02:15.700Z,1.70
2018-11-26T01:04:44.079Z,1.70
2018-11-26T01:07:12.393Z,1.70
2018-11-26T01:09:40.737Z,1.80
2018-11-26T01:12:09.077Z,1.80
2018-11-26T01:14:37.389Z,1.80
2018-11-26T01:17:05.852Z,1.80
2018-11-26T01:19:34.312Z,1.80
2018-11-26T01:22:02.608Z,1.70
2018-11-26T01:24:30.957Z,1.70
2018-11-26T01:26:59.224Z,1.70
2018-11-26T01:29:27.556Z,1.70
2018-11-26T01:31:55.836Z,1.70
2018-11-26T01:34:24.112Z,1.60
2018-11-26T01:36:52.458Z,1.60
2018-11-26T01:39:20.748Z,1.60
2018-11-26T01:41:49.012Z,1.60
2018-11-26T01:44:17.308Z,1.70
2018-11-26T01:46:45.592Z,1.60
2018-11-26T01:49:13.888Z,1.60
2018-11-26T01:51:42.168Z,1.60
2018-11-26T01:54:10.431Z,1.60
2018-11-26T01:56:38.824Z,1.50
2018-11-26T01:59:07.244Z,1.50
2018-11-26T02:01:35.543Z,1.40
2018-11-26T02:04:03.884Z,1.40
2018-11-26T02:06:32.228Z,1.40
2018-11-26T02:09:00.542Z,1.40
2018-11-26T02:11:28.823Z,1.30
2018-11-26T02:13:57.119Z,1.30
2018-11-26T02:16:25.414Z,1.30
2018-11-26T02:18:53.749Z,1.20
2018-11-26T02:21:22.049Z,1.20
2018-11-26T02:23:50.376Z,1.20
2018-11-26T02:26:18.741Z,1.10
2018-11-26T02:28:47.061Z,1.10
2018-11-26T02:31:15.403Z,1.10
2018-11-26T02:33:43.728Z,1.10
2018-11-26T02:36:12.018Z,1.10
2018-11-26T02:38:40.330Z,1.00
2018-11-26T02:41:08.611Z,1.00
2018-11-26T02:43:37.122Z,1.00
2018-11-26T02:46:05.714Z,1.00
2018-11-26T02:48:33.991Z,1.00
2018-11-26T02:51:02.346Z,1.00
2018-11-26T02:53:30.886Z,0.90
2018-11-26T02:55:59.171Z,0.90
2018-11-26T02:58:27.499Z,0.90
2018-11-26T03:00:55.801Z,0.90
2018-11-26T03:03:24.084Z,0.80
2018-11-26T03:05:52.375Z,0.80
2018-11-26T03:08:20.694Z,0.80
2018-11-26T03:10:48.973Z,0.80
2018-11-26T03:13:17.268Z,0.70
2018-11-26T03:15:45.556Z,0.70
2018-11-26T03:18:13.844Z,0.70
2018-11-26T03:20:42.164Z,0.70
2018-11-26T03:23:10.453Z,0.70
2018-11-26T03:25:38.736Z,0.80
2018-11-26T03:28:07.608Z,0.80
2018-11-26T03:30:36.154Z,0.80
2018-11-26T03:33:04.815Z,0.90
2018-11-26T03:35:33.123Z,0.90
2018-11-26T03:38:01.399Z,0.90
2018-11-26T03:40:29.698Z,0.90
2018-11-26T03:42:58.019Z,0.90
2018-11-26T03:45:26.293Z,0.80
2018-11-26T03:47:54.546Z,0.80
2018-11-26T03:50:22.815Z,0.80
2018-11-26T03:52:51.034Z,0.80
2018-11-26T03:55:19.368Z,0.70
2018-11-26T03:57:47.656Z,0.80
2018-11-26T04:00:17.051Z,0.80
2018-11-26T04:02:45.337Z,0.80
2018-11-26T04:05:13.611Z,0.90
2018-11-26T04:07:41.920Z,0.90
2018-11-26T04:10:11.175Z,1.00
2018-11-26T04:12:39.486Z,1.10
2018-11-26T04:15:12.942Z,1.10
2018-11-26T04:17:41.249Z,1.10
2018-11-26T04:20:09.608Z,1.10
2018-11-26T04:22:38.024Z,1.10
2018-11-26T04:25:07.483Z,1.10
2018-11-26T04:27:35.860Z,1.10
2018-11-26T04:30:04.879Z,1.10
2018-11-26T04:32:33.385Z,1.10
2018-11-26T04:35:01.642Z,1.00
2018-11-26T04:37:29.890Z,1.00
2018-11-26T04:39:58.107Z,1.00
2018-11-26T04:42:26.394Z,1.00
2018-11-26T04:44:54.638Z,1.00
2018-11-26T04:47:22.881Z,1.00
2018-11-26T04:49:51.157Z,1.00
2018-11-26T04:52:19.406Z,1.00
2018-11-26T04:54:47.664Z,1.00
2018-11-26T04:57:15.918Z,1.00
2018-11-26T04:59:44.178Z,1.00
2018-11-26T05:02:12.631Z,1.10
2018-11-26T05:04:40.907Z,1.10
2018-11-26T05:07:09.115Z,1.10
2018-11-26T05:09:37.369Z,1.10
2018-11-26T05:12:05.846Z,1.00
2018-11-26T05:14:34.078Z,1.10
2018-11-26T05:17:02.338Z,1.00
2018-11-26T05:19:30.586Z,1.00
2018-11-26T05:21:58.908Z,1.00
2018-11-26T05:24:27.176Z,1.00
2018-11-26T05:26:55.478Z,1.00
2018-11-26T05:29:23.898Z,1.00
2018-11-26T05:31:52.367Z,1.00
2018-11-26T05:34:20.644Z,1.00
2018-11-26T05:36:48.930Z,0.90
2018-11-26T05:39:17.186Z,0.90
2018-11-26T05:41:45.438Z,0.90
2018-11-26T05:44:13.675Z,0.90
2018-11-26T05:46:41.957Z,0.90
2018-11-26T05:49:10.267Z,0.80
2018-11-26T05:51:38.526Z,0.80
2018-11-26T05:54:06.778Z,0.70
2018-11-26T05:56:35.057Z,0.70
2018-11-26T05:59:03.338Z,0.70
2018-11-26T06:01:31.630Z,0.70
2018-11-26T06:03:59.934Z,0.70
2018-11-26T06:06:28.240Z,0.70
2018-11-26T06:08:56.618Z,0.70
2018-11-26T06:11:24.861Z,0.80
2018-11-26T06:13:53.127Z,0.80
2018-11-26T06:16:21.362Z,0.80
2018-11-26T06:18:49.630Z,0.80
2018-11-26T06:21:17.906Z,0.80
2018-11-26T06:23:46.174Z,0.80
2018-11-26T06:26:14.534Z,0.80
2018-11-26T06:28:42.803Z,0.70
2018-11-26T06:31:11.040Z,0.70
2018-11-26T06:33:39.279Z,0.70
2018-11-26T06:36:07.556Z,0.60
2018-11-26T06:38:35.900Z,0.60
2018-11-26T06:41:04.242Z,0.60
2018-11-26T06:43:32.506Z,0.60
2018-11-26T06:46:00.874Z,0.60
2018-11-26T06:48:29.331Z,0.50
2018-11-26T06:50:57.587Z,0.50
2018-11-26T06:53:25.979Z,0.50
2018-11-26T06:55:54.257Z,0.50
2018-11-26T06:58:22.538Z,0.50
2018-11-26T07:00:51.038Z,0.40
2018-11-26T07:03:19.446Z,0.40
2018-11-26T07:05:47.710Z,0.40
2018-11-26T07:08:16.239Z,0.40
2018-11-26T07:10:44.521Z,0.40
2018-11-26T07:13:12.815Z,0.40
2018-11-26T07:15:41.073Z,0.40
2018-11-26T07:18:09.506Z,0.30
2018-11-26T07:20:37.782Z,0.30
2018-11-26T07:23:06.192Z,0.30
2018-11-26T07:25:34.468Z,0.30
2018-11-26T07:28:04.732Z,0.20
2018-11-26T07:30:32.978Z,0.20
2018-11-26T07:33:02.911Z,0.20
2018-11-26T07:35:32.006Z,0.20
2018-11-26T07:38:00.343Z,0.20
2018-11-26T07:40:28.554Z,0.30
2018-11-26T07:43:02.283Z,0.30
2018-11-26T07:45:30.522Z,0.30
2018-11-26T07:47:58.824Z,0.30
2018-11-26T07:50:27.079Z,0.30
2018-11-26T07:52:55.352Z,0.30
2018-11-26T07:55:23.597Z,0.30
2018-11-26T07:57:51.875Z,0.30
2018-11-26T08:00:21.015Z,0.30
2018-11-26T08:02:49.855Z,0.30
2018-11-26T08:05:19.927Z,0.40
2018-11-26T08:07:48.185Z,0.40
2018-11-26T08:10:17.529Z,0.40
2018-11-26T08:12:46.470Z,0.40
2018-11-26T08:15:15.719Z,0.40
2018-11-26T08:17:43.947Z,0.50
2018-11-26T08:20:12.306Z,0.50
2018-11-26T08:22:40.567Z,0.50
2018-11-26T08:25:09.832Z,0.50
2018-11-26T08:27:38.266Z,0.50
2018-11-26T08:31:37.422Z,0.60
2018-11-26T08:34:05.851Z,0.60
2018-11-26T08:36:38.359Z,0.60
2018-11-26T08:39:14.038Z,0.60
2018-11-26T08:41:47.650Z,0.60
2018-11-26T08:44:21.289Z,0.70
2018-11-26T08:46:54.954Z,0.70
2018-11-26T08:49:26.691Z,0.70
2018-11-26T08:52:01.503Z,0.80
2018-11-26T08:54:29.743Z,0.80
2018-11-26T08:56:57.990Z,0.80
2018-11-26T08:59:26.271Z,0.80
2018-11-26T09:02:00.391Z,0.80
2018-11-26T09:04:32.796Z,0.90
2018-11-26T09:07:01.044Z,0.80
2018-11-26T09:09:32.902Z,0.90
2018-11-26T09:11:57.751Z,0.90
2018-11-26T09:14:26.043Z,1.00
2018-11-26T09:16:54.281Z,1.00
2018-11-26T09:19:22.532Z,1.10
2018-11-26T09:21:50.787Z,1.20
2018-11-26T09:24:19.092Z,1.30
2018-11-26T09:29:50.498Z,1.50
2018-11-26T09:32:18.767Z,1.60
2018-11-26T09:34:47.018Z,1.70
2018-11-26T09:37:15.328Z,1.80
2018-11-26T09:39:43.596Z,1.80
2018-11-26T09:42:11.846Z,1.90
2018-11-26T09:44:40.128Z,2.00
2018-11-26T09:47:08.494Z,2.00
2018-11-26T09:49:36.855Z,2.10
2018-11-26T09:52:05.888Z,2.20
2018-11-26T09:54:34.292Z,2.30
2018-11-26T09:57:02.633Z,2.40
2018-11-26T09:59:31.214Z,2.50
2018-11-26T10:01:59.629Z,2.60
2018-11-26T10:04:27.853Z,2.70
2018-11-26T10:06:56.180Z,2.80
2018-11-26T10:09:24.434Z,2.80
2018-11-26T10:11:52.871Z,2.90
2018-11-26T10:14:21.119Z,2.80
2018-11-26T10:16:49.336Z,2.90
2018-11-26T10:19:17.647Z,2.90
2018-11-26T10:21:46.062Z,2.90
2018-11-26T10:24:14.290Z,3.00
2018-11-26T10:26:42.615Z,3.00
2018-11-26T10:29:10.846Z,3.00
2018-11-26T10:31:39.404Z,3.00
2018-11-26T10:34:07.744Z,3.00
2018-11-26T10:36:36.057Z,3.10
2018-11-26T10:39:08.327Z,3.20
2018-11-26T10:41:36.648Z,3.20
2018-11-26T10:44:05.199Z,3.20
2018-11-26T10:46:33.446Z,3.30
2018-11-26T10:49:01.793Z,3.40
2018-11-26T10:51:30.090Z,3.40
2018-11-26T10:53:58.354Z,3.50
2018-11-26T10:56:26.630Z,3.50
2018-11-26T10:58:54.844Z,3.60
2018-11-26T11:01:28.534Z,3.60
2018-11-26T11:03:56.806Z,3.70
2018-11-26T11:06:25.150Z,3.70
2018-11-26T11:08:53.402Z,3.80
2018-11-26T11:11:23.390Z,3.90
2018-11-26T11:13:50.134Z,3.90
2018-11-26T11:16:18.416Z,4.00
2018-11-26T11:18:46.752Z,4.00
2018-11-26T11:21:15.066Z,4.10
2018-11-26T11:23:43.356Z,4.20
2018-11-26T11:26:11.660Z,4.20
2018-11-26T11:28:39.976Z,4.30
2018-11-26T11:31:08.379Z,4.40
2018-11-26T11:33:36.688Z,4.40
2018-11-26T11:36:05.245Z,4.50
2018-11-26T11:38:33.557Z,4.60
2018-11-26T11:41:04.795Z,4.60
2018-11-26T11:43:33.179Z,4.70
2018-11-26T11:46:01.548Z,4.70
2018-11-26T11:48:29.914Z,4.80
2018-11-26T11:50:58.153Z,4.90
2018-11-26T11:53:26.441Z,4.90
2018-11-26T11:55:54.672Z,4.90
2018-11-26T11:58:22.940Z,5.00
2018-11-26T12:00:51.217Z,5.10
2018-11-26T12:03:21.036Z,5.10
2018-11-26T12:05:49.339Z,5.10
2018-11-26T12:08:17.756Z,5.20
2018-11-26T12:10:46.096Z,5.20
2018-11-26T12:13:15.099Z,5.30
2018-11-26T12:15:46.995Z,5.30
2018-11-26T12:18:15.243Z,5.30
2018-11-26T12:20:44.678Z,5.40
2018-11-26T12:23:12.976Z,5.40
2018-11-26T12:25:41.283Z,5.40
2018-11-26T12:28:09.531Z,5.40
2018-11-26T12:30:39.588Z,5.40
2018-11-26T12:33:07.928Z,5.50
2018-11-26T12:35:36.271Z,5.50
2018-11-26T12:38:06.998Z,5.50
2018-11-26T12:40:35.364Z,5.60
2018-11-26T12:43:04.396Z,5.60
2018-11-26T12:45:33.899Z,5.60
2018-11-26T12:48:02.372Z,5.70
2018-11-26T12:50:30.774Z,5.80
2018-11-26T12:52:59.028Z,5.80
2018-11-26T12:55:27.372Z,5.90
2018-11-26T12:57:56.455Z,5.90
2018-11-26T13:00:29.415Z,5.90
2018-11-26T13:03:02.183Z,5.90
2018-11-26T13:05:30.482Z,5.90
2018-11-26T13:07:58.792Z,5.90
2018-11-26T13:10:28.998Z,5.80
2018-11-26T13:12:58.179Z,5.80
2018-11-26T13:15:27.640Z,5.80
2018-11-26T13:17:55.935Z,5.70
2018-11-26T13:20:25.939Z,5.60
2018-11-26T13:22:54.583Z,5.60
2018-11-26T13:25:25.854Z,5.50
2018-11-26T13:27:55.292Z,5.50
2018-11-26T13:30:31.635Z,5.40
2018-11-26T13:33:01.699Z,5.40
2018-11-26T13:35:30.356Z,5.30
2018-11-26T13:37:58.720Z,5.30
2018-11-26T13:40:27.104Z,5.20
2018-11-26T13:42:55.445Z,5.20
2018-11-26T13:45:27.161Z,5.10
2018-11-26T13:47:55.476Z,5.00
2018-11-26T13:50:30.624Z,5.00
2018-11-26T13:52:58.927Z,4.90
2018-11-26T13:55:27.279Z,4.90
2018-11-26T13:57:55.584Z,4.80
2018-11-26T14:00:23.880Z,4.70
2018-11-26T14:02:52.179Z,4.70
2018-11-26T14:05:20.455Z,4.60
2018-11-26T14:07:48.812Z,4.60
2018-11-26T14:10:23.391Z,4.50
2018-11-26T14:12:57.339Z,4.40
2018-11-26T14:15:25.732Z,4.40
2018-11-26T14:17:54.091Z,4.30
2018-11-26T14:20:22.464Z,4.20
2018-11-26T14:22:50.839Z,4.10
2018-11-26T14:25:22.966Z,4.00
2018-11-26T14:27:51.241Z,3.90
2018-11-26T14:30:22.064Z,3.90
2018-11-26T14:32:50.342Z,3.80
2018-11-26T14:35:18.676Z,3.70
2018-11-26T14:37:51.375Z,3.60
2018-11-26T14:40:33.730Z,3.50
2018-11-26T14:43:02.037Z,3.40
2018-11-26T14:45:30.695Z,3.30
2018-11-26T14:47:59.076Z,3.20
2018-11-26T14:50:27.381Z,3.10
2018-11-26T14:52:55.709Z,3.00
2018-11-26T14:55:25.988Z,2.90
2018-11-26T14:57:54.305Z,2.80
2018-11-26T15:00:22.757Z,2.70
2018-11-26T15:02:51.046Z,2.60
2018-11-26T15:05:19.378Z,2.50
2018-11-26T15:07:47.630Z,2.50
2018-11-26T15:10:19.253Z,2.40
2018-11-26T15:12:47.684Z,2.30
2018-11-26T15:15:17.010Z,2.20
2018-11-26T15:17:45.685Z,2.10
2018-11-26T15:20:23.397Z,2.00
2018-11-26T15:22:52.582Z,2.00
2018-11-26T15:25:23.068Z,1.90
2018-11-26T15:27:52.452Z,1.80
2018-11-26T15:30:21.537Z,1.70
2018-11-26T15:32:50.031Z,1.70
2018-11-26T15:35:19.573Z,1.70
2018-11-26T15:37:47.825Z,1.60
2018-11-26T15:40:17.139Z,1.50
2018-11-26T15:42:45.385Z,1.50
2018-11-26T15:45:16.959Z,1.40
2018-11-26T15:47:45.464Z,1.30
2018-11-26T15:50:13.779Z,1.30
2018-11-26T15:52:42.108Z,1.20
2018-11-26T15:55:12.452Z,1.20
2018-11-26T15:57:40.748Z,1.20
2018-11-26T16:00:16.254Z,1.20
2018-11-26T16:02:44.561Z,1.20
2018-11-26T16:05:14.147Z,1.10
2018-11-26T16:07:42.867Z,1.10
2018-11-26T16:10:12.311Z,1.20
2018-11-26T16:12:40.834Z,1.10
2018-11-26T16:15:12.603Z,1.20
2018-11-26T16:17:40.895Z,1.20
2018-11-26T16:20:11.960Z,1.20
2018-11-26T16:22:40.225Z,1.10
2018-11-26T16:25:10.328Z,1.10
2018-11-26T16:27:38.604Z,1.10
2018-11-26T16:30:10.126Z,1.10
2018-11-26T16:32:38.662Z,1.10
2018-11-26T16:35:57.909Z,1.10
2018-11-26T16:38:26.512Z,1.10
2018-11-26T16:40:54.961Z,1.10
2018-11-26T16:43:23.256Z,1.00
2018-11-26T16:45:51.531Z,1.00
2018-11-26T16:48:19.908Z,1.00
2018-11-26T16:50:48.352Z,1.00
2018-11-26T16:53:19.384Z,1.00
2018-11-26T16:55:44.943Z,1.00
2018-11-26T16:58:13.360Z,1.00
2018-11-26T17:00:41.651Z,0.90
2018-11-26T17:03:09.875Z,0.90
2018-11-26T17:05:39.688Z,0.90
2018-11-26T17:08:09.502Z,0.90
2018-11-26T17:10:37.763Z,0.80
2018-11-26T17:13:06.438Z,0.80
2018-11-26T17:15:34.668Z,0.80
2018-11-26T17:18:02.983Z,0.80
2018-11-26T17:20:31.237Z,0.80
2018-11-26T17:22:59.503Z,0.80
2018-11-26T17:25:27.728Z,0.90
2018-11-26T17:27:56.042Z,0.90
2018-11-26T17:30:26.184Z,1.00
2018-11-26T17:32:58.756Z,1.00
2018-11-26T17:35:27.291Z,1.10
2018-11-26T17:37:55.543Z,1.10
2018-11-26T17:40:24.563Z,1.10
2018-11-26T17:42:53.191Z,1.20
2018-11-26T17:45:22.152Z,1.20
2018-11-26T17:47:53.327Z,1.30
2018-11-26T17:50:22.967Z,1.30
2018-11-26T17:52:51.215Z,1.30
2018-11-26T17:55:19.472Z,1.40
2018-11-26T17:57:47.769Z,1.40
2018-11-26T18:00:18.583Z,1.40
2018-11-26T18:02:46.844Z,1.40
2018-11-26T18:05:16.641Z,1.40
2018-11-26T18:07:45.719Z,1.30
2018-11-26T18:10:15.160Z,1.30
2018-11-26T18:12:43.463Z,1.30
2018-11-26T18:15:14.853Z,1.20
2018-11-26T18:17:44.612Z,1.20
2018-11-26T18:20:18.161Z,1.10
2018-11-26T18:22:47.600Z,1.10
2018-11-26T18:25:16.591Z,1.00
2018-11-26T18:27:47.801Z,1.00
2018-11-26T18:30:19.839Z,1.00
2018-11-26T18:32:48.092Z,1.00
2018-11-26T18:35:16.387Z,1.00
2018-11-26T18:37:44.763Z,1.00
2018-11-26T18:40:15.191Z,1.00
2018-11-26T18:42:43.584Z,1.10
2018-11-26T18:45:13.939Z,1.10
2018-11-26T18:47:43.283Z,1.10
2018-11-26T18:50:18.447Z,1.20
2018-11-26T18:52:47.380Z,1.20
2018-11-26T18:55:15.691Z,1.20
2018-11-26T18:57:43.996Z,1.20
2018-11-26T19:00:32.852Z,1.30
2018-11-26T19:03:01.272Z,1.30
2018-11-26T19:05:29.555Z,1.30
2018-11-26T19:07:57.918Z,1.30
2018-11-26T19:10:28.748Z,1.40
2018-11-26T19:13:03.145Z,1.40
2018-11-26T19:15:34.031Z,1.40
2018-11-26T19:18:07.949Z,1.50
2018-11-26T19:20:36.259Z,1.50
2018-11-26T19:23:04.832Z,1.50
2018-11-26T19:25:33.171Z,1.50
2018-11-26T19:28:07.901Z,1.60
2018-11-26T19:30:36.123Z,1.60
2018-11-26T19:33:05.611Z,1.60
2018-11-26T19:35:33.860Z,1.60
2018-11-26T19:41:33.373Z,1.60
2018-11-26T19:44:01.743Z,1.60
2018-11-26T19:46:29.992Z,1.70
2018-11-26T19:48:58.315Z,1.70
2018-11-26T19:51:26.601Z,1.70
2018-11-26T19:53:54.854Z,1.70
2018-11-26T19:56:23.176Z,1.70
2018-11-26T19:58:51.636Z,1.80
2018-11-26T20:01:19.945Z,1.70
2018-11-26T20:03:50.970Z,1.70
2018-11-26T20:06:21.912Z,1.70
2018-11-26T20:08:51.909Z,1.70
2018-11-26T20:11:20.280Z,1.70
2018-11-26T20:16:28.217Z,1.60
2018-11-26T20:18:56.683Z,1.60
2018-11-26T20:21:25.100Z,1.50
2018-11-26T20:24:00.105Z,1.40
2018-11-26T20:26:28.415Z,1.40
2018-11-26T20:28:57.102Z,1.30
2018-11-26T20:31:24.980Z,1.30
2018-11-26T20:33:53.451Z,1.30
2018-11-26T20:36:21.772Z,1.20
2018-11-26T20:38:50.019Z,1.10
2018-11-26T20:41:18.338Z,1.10
2018-11-26T20:43:46.756Z,1.00
2018-11-26T20:46:15.122Z,1.00
2018-11-26T20:48:43.431Z,0.90
2018-11-26T20:51:11.803Z,0.90
2018-11-26T20:53:40.793Z,0.80
2018-11-26T20:56:13.300Z,0.80
2018-11-26T20:58:41.616Z,0.70
2018-11-26T21:01:10.589Z,0.70
2018-11-26T21:03:38.899Z,0.60
2018-11-26T21:06:07.302Z,0.60
2018-11-26T21:08:35.685Z,0.50
2018-11-26T21:11:04.031Z,0.50
2018-11-26T21:13:32.411Z,0.40
2018-11-26T21:19:31.752Z,0.40
2018-11-26T21:22:00.057Z,0.30
2018-11-26T21:24:28.376Z,0.30
2018-11-26T21:26:56.739Z,0.20
2018-11-26T21:29:25.021Z,0.20
2018-11-26T21:31:53.383Z,0.10
2018-11-26T21:34:21.747Z,0.10
2018-11-26T21:36:50.404Z,0.10
2018-11-26T21:39:18.707Z,0.10
2018-11-26T21:41:47.130Z,0.10
2018-11-26T21:44:15.488Z,0.00
2018-11-26T21:46:43.803Z,0.00
2018-11-26T21:49:12.243Z,0.00
2018-11-26T21:51:40.523Z,0.00
2018-11-26T21:54:08.835Z,-0.10
2018-11-26T21:56:37.142Z,-0.10
2018-11-26T21:59:05.961Z,-0.10
2018-11-26T22:01:34.288Z,-0.20
2018-11-26T22:04:02.579Z,-0.20
2018-11-26T22:06:30.855Z,-0.20
2018-11-26T22:08:59.192Z,-0.20
2018-11-26T22:11:30.339Z,-0.30
2018-11-26T22:13:55.833Z,-0.30
2018-11-26T22:16:24.150Z,-0.40
2018-11-26T22:18:53.013Z,-0.40
2018-11-26T22:21:21.351Z,-0.40
2018-11-26T22:23:49.671Z,-0.40
2018-11-26T22:26:17.980Z,-0.50
2018-11-26T22:28:46.276Z,-0.50
2018-11-26T22:31:14.600Z,-0.50
2018-11-26T22:33:42.872Z,-0.50
2018-11-26T22:36:11.208Z,-0.60
2018-11-26T22:38:39.495Z,-0.60
2018-11-26T22:41:07.824Z,-0.60
2018-11-26T22:43:36.462Z,-0.60
2018-11-26T22:46:04.760Z,-0.70
2018-11-26T22:48:33.040Z,-0.70
2018-11-26T22:51:01.428Z,-0.70
2018-11-26T22:53:29.712Z,-0.70
2018-11-26T22:55:57.983Z,-0.80
2018-11-26T22:58:26.255Z,-0.80
2018-11-26T23:00:54.928Z,-0.80
2018-11-26T23:03:26.790Z,-0.80
2018-11-26T23:05:55.067Z,-0.80
2018-11-26T23:08:23.486Z,-0.90
2018-11-26T23:10:51.743Z,-0.90
2018-11-26T23:13:19.995Z,-0.90
2018-11-26T23:15:48.291Z,-0.90
2018-11-26T23:18:16.553Z,-0.90
2018-11-26T23:20:44.848Z,-0.90
2018-11-26T23:23:13.140Z,-0.90
2018-11-26T23:25:41.391Z,-0.90
2018-11-26T23:28:09.657Z,-0.90
2018-11-26T23:30:37.892Z,-1.00
2018-11-26T23:33:06.892Z,-1.00
2018-11-26T23:35:35.160Z,-1.00
2018-11-26T23:38:03.424Z,-1.00
2018-11-26T23:40:31.679Z,-1.00
2018-11-26T23:42:59.968Z,-1.10
2018-11-26T23:45:28.861Z,-1.10
2018-11-26T23:47:57.125Z,-1.10
2018-11-26T23:50:25.455Z,-1.10
2018-11-26T23:52:53.756Z,-1.10
2018-11-26T23:55:23.112Z,-1.20
2018-11-26T23:57:51.384Z,-1.20
